sensor_id;sensor_type;location;lat;lon;timestamp;pressure;altitude;pressure_sealevel;temperature;humidity
7441;BME280;29616;51.950;8.572;2023-03-09T00:01:46;97465.03;;;2.37;100.00
7441;BME280;29616;51.950;8.572;2023-03-09T00:04:17;97482.75;;;2.39;100.00
7441;BME280;29616;51.950;8.572;2023-03-09T00:06:46;97480.88;;;2.40;100.00
7441;BME280;29616;51.950;8.572;2023-03-09T00:09:17;97486.44;;;2.38;100.00
7441;BME280;29616;51.950;8.572;2023-03-09T00:11:47;97487.63;;;2.44;100.00
7441;BME280;29616;51.950;8.572;2023-03-09T00:14:18;97480.41;;;2.44;100.00
7441;BME280;29616;51.950;8.572;2023-03-09T00:16:50;97471.78;;;2.41;100.00
7441;BME280;29616;51.950;8.572;2023-03-09T00:19:20;97473.97;;;2.45;100.00
7441;BME280;29616;51.950;8.572;2023-03-09T00:21:55;97452.25;;;2.31;100.00
7441;BME280;29616;51.950;8.572;2023-03-09T00:24:26;97468.91;;;2.42;100.00
7441;BME280;29616;51.950;8.572;2023-03-09T00:26:57;97472.31;;;2.44;100.00
7441;BME280;29616;51.950;8.572;2023-03-09T00:29:28;97474.66;;;2.39;100.00
7441;BME280;29616;51.950;8.572;2023-03-09T00:31:59;97469.63;;;2.44;100.00
7441;BME280;29616;51.950;8.572;2023-03-09T00:34:31;97472.78;;;2.40;100.00
7441;BME280;29616;51.950;8.572;2023-03-09T00:36:59;97453.75;;;2.33;100.00
7441;BME280;29616;51.950;8.572;2023-03-09T00:39:31;97462.19;;;2.47;100.00
7441;BME280;29616;51.950;8.572;2023-03-09T00:42:00;97464.91;;;2.47;100.00
7441;BME280;29616;51.950;8.572;2023-03-09T00:44:28;97457.66;;;2.39;100.00
7441;BME280;29616;51.950;8.572;2023-03-09T00:46:57;97470.28;;;2.47;100.00
7441;BME280;29616;51.950;8.572;2023-03-09T00:49:25;97464.91;;;2.47;100.00
7441;BME280;29616;51.950;8.572;2023-03-09T00:51:55;97453.59;;;2.43;100.00
7441;BME280;29616;51.950;8.572;2023-03-09T00:54:23;97449.06;;;2.43;100.00
7441;BME280;29616;51.950;8.572;2023-03-09T00:56:56;97451.44;;;2.55;100.00
7441;BME280;29616;51.950;8.572;2023-03-09T00:59:25;97456.81;;;2.55;100.00
7441;BME280;29616;51.950;8.572;2023-03-09T01:01:56;97439.63;;;2.39;100.00
7441;BME280;29616;51.950;8.572;2023-03-09T01:04:25;97458.84;;;2.53;100.00
7441;BME280;29616;51.950;8.572;2023-03-09T01:06:54;97462.88;;;2.57;100.00
7441;BME280;29616;51.950;8.572;2023-03-09T01:09:22;97457.69;;;2.55;100.00
7441;BME280;29616;51.950;8.572;2023-03-09T01:11:52;97442.31;;;2.56;100.00
7441;BME280;29616;51.950;8.572;2023-03-09T01:14:22;97427.50;;;2.43;100.00
7441;BME280;29616;51.950;8.572;2023-03-09T01:16:53;97452.09;;;2.57;100.00
7441;BME280;29616;51.950;8.572;2023-03-09T01:19:23;97459.00;;;2.59;100.00
7441;BME280;29616;51.950;8.572;2023-03-09T01:21:54;97451.59;;;2.53;100.00
7441;BME280;29616;51.950;8.572;2023-03-09T01:24:24;97455.13;;;2.54;100.00
7441;BME280;29616;51.950;8.572;2023-03-09T01:26:55;97452.94;;;2.57;100.00
7441;BME280;29616;51.950;8.572;2023-03-09T01:29:26;97460.38;;;2.55;100.00
7441;BME280;29616;51.950;8.572;2023-03-09T01:31:57;97459.16;;;2.41;100.00
7441;BME280;29616;51.950;8.572;2023-03-09T01:34:25;97469.63;;;2.53;100.00
7441;BME280;29616;51.950;8.572;2023-03-09T01:36:54;97465.75;;;2.55;100.00
7441;BME280;29616;51.950;8.572;2023-03-09T01:39:22;97470.31;;;2.55;100.00
7441;BME280;29616;51.950;8.572;2023-03-09T01:41:51;97466.75;;;2.54;100.00
7441;BME280;29616;51.950;8.572;2023-03-09T01:44:21;97463.41;;;2.52;100.00
7441;BME280;29616;51.950;8.572;2023-03-09T01:46:51;97461.53;;;2.44;100.00
7441;BME280;29616;51.950;8.572;2023-03-09T01:49:28;97472.31;;;2.36;100.00
7441;BME280;29616;51.950;8.572;2023-03-09T01:52:04;97438.88;;;2.21;100.00
7441;BME280;29616;51.950;8.572;2023-03-09T01:54:36;97457.78;;;2.29;100.00
7441;BME280;29616;51.950;8.572;2023-03-09T01:57:09;97467.25;;;2.41;100.00
7441;BME280;29616;51.950;8.572;2023-03-09T01:59:40;97469.59;;;2.36;100.00
7441;BME280;29616;51.950;8.572;2023-03-09T02:02:14;97457.28;;;2.26;100.00
7441;BME280;29616;51.950;8.572;2023-03-09T02:04:44;97469.28;;;2.39;100.00
7441;BME280;29616;51.950;8.572;2023-03-09T02:07:16;97456.78;;;2.30;100.00
7441;BME280;29616;51.950;8.572;2023-03-09T02:09:49;97456.91;;;2.29;100.00
7441;BME280;29616;51.950;8.572;2023-03-09T02:12:21;97466.53;;;2.23;100.00
7441;BME280;29616;51.950;8.572;2023-03-09T02:14:51;97474.09;;;2.20;100.00
7441;BME280;29616;51.950;8.572;2023-03-09T02:17:20;97478.47;;;2.29;100.00
7441;BME280;29616;51.950;8.572;2023-03-09T02:20:00;97474.25;;;2.26;100.00
7441;BME280;29616;51.950;8.572;2023-03-09T02:22:32;97479.84;;;2.25;100.00
7441;BME280;29616;51.950;8.572;2023-03-09T02:25:08;97497.88;;;2.32;100.00
7441;BME280;29616;51.950;8.572;2023-03-09T02:27:41;97501.59;;;2.31;100.00
7441;BME280;29616;51.950;8.572;2023-03-09T02:30:11;97495.06;;;2.42;100.00
7441;BME280;29616;51.950;8.572;2023-03-09T02:32:41;97468.19;;;2.16;100.00
7441;BME280;29616;51.950;8.572;2023-03-09T02:35:10;97499.56;;;2.33;100.00
7441;BME280;29616;51.950;8.572;2023-03-09T02:37:45;97508.84;;;2.31;100.00
7441;BME280;29616;51.950;8.572;2023-03-09T02:40:23;97504.63;;;2.36;100.00
7441;BME280;29616;51.950;8.572;2023-03-09T02:42:58;97500.88;;;2.29;100.00
7441;BME280;29616;51.950;8.572;2023-03-09T02:45:29;97504.28;;;2.31;100.00
7441;BME280;29616;51.950;8.572;2023-03-09T02:47:59;97503.94;;;2.34;100.00
7441;BME280;29616;51.950;8.572;2023-03-09T02:50:27;97491.97;;;2.21;100.00
7441;BME280;29616;51.950;8.572;2023-03-09T02:52:58;97510.31;;;2.25;100.00
7441;BME280;29616;51.950;8.572;2023-03-09T02:55:30;97515.72;;;2.25;100.00
7441;BME280;29616;51.950;8.572;2023-03-09T02:58:04;97515.84;;;2.24;100.00
7441;BME280;29616;51.950;8.572;2023-03-09T03:00:33;97529.88;;;2.27;100.00
7441;BME280;29616;51.950;8.572;2023-03-09T03:03:03;97547.41;;;2.31;100.00
7441;BME280;29616;51.950;8.572;2023-03-09T03:05:31;97542.69;;;2.33;100.00
7441;BME280;29616;51.950;8.572;2023-03-09T03:08:03;97509.63;;;2.15;100.00
7441;BME280;29616;51.950;8.572;2023-03-09T03:10:31;97519.72;;;2.21;100.00
7441;BME280;29616;51.950;8.572;2023-03-09T03:13:00;97540.59;;;2.19;100.00
7441;BME280;29616;51.950;8.572;2023-03-09T03:15:31;97536.59;;;2.23;100.00
7441;BME280;29616;51.950;8.572;2023-03-09T03:17:59;97545.19;;;2.27;100.00
7441;BME280;29616;51.950;8.572;2023-03-09T03:20:29;97548.59;;;2.37;100.00
7441;BME280;29616;51.950;8.572;2023-03-09T03:23:00;97551.09;;;2.30;100.00
7441;BME280;29616;51.950;8.572;2023-03-09T03:25:37;97569.66;;;2.33;100.00
7441;BME280;29616;51.950;8.572;2023-03-09T03:28:06;97566.09;;;2.33;100.00
7441;BME280;29616;51.950;8.572;2023-03-09T03:30:36;97572.53;;;2.40;100.00
7441;BME280;29616;51.950;8.572;2023-03-09T03:33:05;97569.16;;;2.38;100.00
7441;BME280;29616;51.950;8.572;2023-03-09T03:35:34;97563.22;;;2.34;100.00
7441;BME280;29616;51.950;8.572;2023-03-09T03:38:07;97561.88;;;2.30;100.00
7441;BME280;29616;51.950;8.572;2023-03-09T03:40:37;97529.09;;;2.01;100.00
7441;BME280;29616;51.950;8.572;2023-03-09T03:43:08;97590.38;;;2.41;100.00
7441;BME280;29616;51.950;8.572;2023-03-09T03:45:41;97595.56;;;2.34;100.00
7441;BME280;29616;51.950;8.572;2023-03-09T03:48:10;97598.63;;;2.31;100.00
7441;BME280;29616;51.950;8.572;2023-03-09T03:50:38;97609.22;;;2.33;100.00
7441;BME280;29616;51.950;8.572;2023-03-09T03:53:08;97593.91;;;2.33;100.00
7441;BME280;29616;51.950;8.572;2023-03-09T03:55:38;97603.31;;;2.29;100.00
7441;BME280;29616;51.950;8.572;2023-03-09T03:58:08;97608.06;;;2.35;100.00
7441;BME280;29616;51.950;8.572;2023-03-09T04:00:38;97614.13;;;2.37;100.00
7441;BME280;29616;51.950;8.572;2023-03-09T04:03:12;97590.59;;;2.14;100.00
7441;BME280;29616;51.950;8.572;2023-03-09T04:05:45;97630.59;;;2.34;100.00
7441;BME280;29616;51.950;8.572;2023-03-09T04:08:17;97632.31;;;2.35;100.00
7441;BME280;29616;51.950;8.572;2023-03-09T04:10:47;97638.56;;;2.36;100.00
7441;BME280;29616;51.950;8.572;2023-03-09T04:13:18;97623.03;;;2.30;100.00
7441;BME280;29616;51.950;8.572;2023-03-09T04:15:46;97646.47;;;2.37;100.00
7441;BME280;29616;51.950;8.572;2023-03-09T04:18:17;97638.59;;;2.44;100.00
7441;BME280;29616;51.950;8.572;2023-03-09T04:20:45;97645.28;;;2.40;100.00
7441;BME280;29616;51.950;8.572;2023-03-09T04:23:14;97655.56;;;2.36;100.00
7441;BME280;29616;51.950;8.572;2023-03-09T04:25:53;97670.78;;;2.45;100.00
7441;BME280;29616;51.950;8.572;2023-03-09T04:28:28;97671.78;;;2.44;100.00
7441;BME280;29616;51.950;8.572;2023-03-09T04:31:01;97683.56;;;2.43;100.00
7441;BME280;29616;51.950;8.572;2023-03-09T04:33:33;97680.56;;;2.47;100.00
7441;BME280;29616;51.950;8.572;2023-03-09T04:36:02;97691.16;;;2.48;100.00
7441;BME280;29616;51.950;8.572;2023-03-09T04:38:35;97693.00;;;2.47;100.00
7441;BME280;29616;51.950;8.572;2023-03-09T04:41:04;97690.16;;;2.49;100.00
7441;BME280;29616;51.950;8.572;2023-03-09T04:43:35;97689.13;;;2.42;100.00
7441;BME280;29616;51.950;8.572;2023-03-09T04:46:06;97681.19;;;2.40;100.00
7441;BME280;29616;51.950;8.572;2023-03-09T04:48:38;97682.22;;;2.47;100.00
7441;BME280;29616;51.950;8.572;2023-03-09T04:51:07;97679.34;;;2.41;100.00
7441;BME280;29616;51.950;8.572;2023-03-09T04:53:35;97660.59;;;2.31;100.00
7441;BME280;29616;51.950;8.572;2023-03-09T04:56:05;97686.59;;;2.40;100.00
7441;BME280;29616;51.950;8.572;2023-03-09T04:58:41;97692.81;;;2.41;100.00
7441;BME280;29616;51.950;8.572;2023-03-09T05:01:09;97678.09;;;2.27;100.00
7441;BME280;29616;51.950;8.572;2023-03-09T05:03:42;97699.56;;;2.45;100.00
7441;BME280;29616;51.950;8.572;2023-03-09T05:06:13;97719.28;;;2.45;100.00
7441;BME280;29616;51.950;8.572;2023-03-09T05:08:43;97716.09;;;2.42;100.00
7441;BME280;29616;51.950;8.572;2023-03-09T05:11:12;97722.00;;;2.45;100.00
7441;BME280;29616;51.950;8.572;2023-03-09T05:13:42;97750.09;;;2.43;100.00
7441;BME280;29616;51.950;8.572;2023-03-09T05:16:14;97750.34;;;2.50;100.00
7441;BME280;29616;51.950;8.572;2023-03-09T05:18:49;97741.53;;;2.47;100.00
7441;BME280;29616;51.950;8.572;2023-03-09T05:21:22;97744.53;;;2.36;100.00
7441;BME280;29616;51.950;8.572;2023-03-09T05:23:53;97750.66;;;2.47;100.00
7441;BME280;29616;51.950;8.572;2023-03-09T05:26:23;97738.28;;;2.36;100.00
7441;BME280;29616;51.950;8.572;2023-03-09T05:28:55;97757.88;;;2.46;100.00
7441;BME280;29616;51.950;8.572;2023-03-09T05:31:24;97746.44;;;2.26;100.00
7441;BME280;29616;51.950;8.572;2023-03-09T05:33:55;97747.16;;;2.28;100.00
7441;BME280;29616;51.950;8.572;2023-03-09T05:36:24;97751.09;;;2.34;100.00
7441;BME280;29616;51.950;8.572;2023-03-09T05:38:57;97785.00;;;2.44;100.00
7441;BME280;29616;51.950;8.572;2023-03-09T05:41:27;97796.16;;;2.50;100.00
7441;BME280;29616;51.950;8.572;2023-03-09T05:44:02;97798.31;;;2.46;100.00
7441;BME280;29616;51.950;8.572;2023-03-09T05:46:31;97796.31;;;2.48;100.00
7441;BME280;29616;51.950;8.572;2023-03-09T05:49:03;97781.59;;;2.42;100.00
7441;BME280;29616;51.950;8.572;2023-03-09T05:51:31;97798.88;;;2.50;100.00
7441;BME280;29616;51.950;8.572;2023-03-09T05:54:02;97753.53;;;2.27;100.00
7441;BME280;29616;51.950;8.572;2023-03-09T05:56:35;97791.75;;;2.49;100.00
7441;BME280;29616;51.950;8.572;2023-03-09T05:59:05;97795.84;;;2.53;100.00
7441;BME280;29616;51.950;8.572;2023-03-09T06:01:34;97792.44;;;2.51;100.00
7441;BME280;29616;51.950;8.572;2023-03-09T06:04:23;97809.00;;;2.56;100.00
7441;BME280;29616;51.950;8.572;2023-03-09T06:06:57;97808.84;;;2.57;100.00
7441;BME280;29616;51.950;8.572;2023-03-09T06:09:34;97821.13;;;2.52;100.00
7441;BME280;29616;51.950;8.572;2023-03-09T06:12:05;97828.22;;;2.53;100.00
7441;BME280;29616;51.950;8.572;2023-03-09T06:14:34;97827.41;;;2.60;100.00
7441;BME280;29616;51.950;8.572;2023-03-09T06:17:04;97844.09;;;2.64;100.00
7441;BME280;29616;51.950;8.572;2023-03-09T06:19:39;97846.88;;;2.72;100.00
7441;BME280;29616;51.950;8.572;2023-03-09T06:22:09;97848.88;;;2.70;100.00
7441;BME280;29616;51.950;8.572;2023-03-09T06:24:41;97852.47;;;2.78;100.00
7441;BME280;29616;51.950;8.572;2023-03-09T06:27:13;97841.63;;;2.70;100.00
7441;BME280;29616;51.950;8.572;2023-03-09T06:29:44;97851.69;;;2.86;100.00
7441;BME280;29616;51.950;8.572;2023-03-09T06:32:14;97850.63;;;2.79;100.00
7441;BME280;29616;51.950;8.572;2023-03-09T06:34:47;97863.81;;;2.82;100.00
7441;BME280;29616;51.950;8.572;2023-03-09T06:37:17;97814.94;;;2.59;100.00
7441;BME280;29616;51.950;8.572;2023-03-09T06:39:47;97858.06;;;2.85;100.00
7441;BME280;29616;51.950;8.572;2023-03-09T06:42:17;97868.50;;;2.80;100.00
7441;BME280;29616;51.950;8.572;2023-03-09T06:44:50;97875.28;;;2.84;100.00
7441;BME280;29616;51.950;8.572;2023-03-09T06:47:21;97876.69;;;2.96;100.00
7441;BME280;29616;51.950;8.572;2023-03-09T06:49:58;97877.91;;;3.01;100.00
7441;BME280;29616;51.950;8.572;2023-03-09T06:52:30;97876.81;;;2.86;100.00
7441;BME280;29616;51.950;8.572;2023-03-09T06:55:00;97867.19;;;2.84;100.00
7441;BME280;29616;51.950;8.572;2023-03-09T06:57:44;97856.72;;;2.81;100.00
7441;BME280;29616;51.950;8.572;2023-03-09T07:00:16;97892.38;;;3.18;100.00
7441;BME280;29616;51.950;8.572;2023-03-09T07:02:50;97891.25;;;3.29;100.00
7441;BME280;29616;51.950;8.572;2023-03-09T07:05:23;97892.16;;;3.37;100.00
7441;BME280;29616;51.950;8.572;2023-03-09T07:07:52;97898.41;;;3.38;100.00
7441;BME280;29616;51.950;8.572;2023-03-09T07:10:24;97908.84;;;3.41;100.00
7441;BME280;29616;51.950;8.572;2023-03-09T07:12:52;97903.31;;;3.42;100.00
7441;BME280;29616;51.950;8.572;2023-03-09T07:15:22;97906.59;;;3.28;100.00
7441;BME280;29616;51.950;8.572;2023-03-09T07:17:51;97922.59;;;3.22;100.00
7441;BME280;29616;51.950;8.572;2023-03-09T07:20:23;97920.09;;;3.28;100.00
7441;BME280;29616;51.950;8.572;2023-03-09T07:22:51;97920.78;;;3.30;100.00
7441;BME280;29616;51.950;8.572;2023-03-09T07:25:20;97929.44;;;3.42;100.00
7441;BME280;29616;51.950;8.572;2023-03-09T07:27:49;97931.06;;;3.60;100.00
7441;BME280;29616;51.950;8.572;2023-03-09T07:30:18;97920.47;;;3.67;100.00
7441;BME280;29616;51.950;8.572;2023-03-09T07:32:47;97933.16;;;3.75;100.00
7441;BME280;29616;51.950;8.572;2023-03-09T07:35:18;97928.41;;;3.68;100.00
7441;BME280;29616;51.950;8.572;2023-03-09T07:37:48;97936.78;;;3.57;100.00
7441;BME280;29616;51.950;8.572;2023-03-09T07:40:19;97945.44;;;3.61;100.00
7441;BME280;29616;51.950;8.572;2023-03-09T07:42:50;97956.19;;;3.53;100.00
7441;BME280;29616;51.950;8.572;2023-03-09T07:45:32;97946.41;;;3.60;100.00
7441;BME280;29616;51.950;8.572;2023-03-09T07:48:00;97968.25;;;3.66;100.00
7441;BME280;29616;51.950;8.572;2023-03-09T07:50:29;97987.78;;;3.60;100.00
7441;BME280;29616;51.950;8.572;2023-03-09T07:53:02;98001.16;;;3.70;100.00
7441;BME280;29616;51.950;8.572;2023-03-09T07:55:33;98003.09;;;3.78;100.00
7441;BME280;29616;51.950;8.572;2023-03-09T07:58:02;97973.16;;;3.71;100.00
7441;BME280;29616;51.950;8.572;2023-03-09T08:00:32;97986.75;;;3.87;100.00
7441;BME280;29616;51.950;8.572;2023-03-09T08:03:02;97988.88;;;4.09;100.00
7441;BME280;29616;51.950;8.572;2023-03-09T08:05:32;97986.72;;;4.21;100.00
7441;BME280;29616;51.950;8.572;2023-03-09T08:08:03;97991.00;;;4.40;100.00
7441;BME280;29616;51.950;8.572;2023-03-09T08:10:34;97987.63;;;4.46;100.00
7441;BME280;29616;51.950;8.572;2023-03-09T08:13:04;97994.41;;;4.50;100.00
7441;BME280;29616;51.950;8.572;2023-03-09T08:15:32;97999.59;;;4.35;100.00
7441;BME280;29616;51.950;8.572;2023-03-09T08:18:02;98007.09;;;4.07;100.00
7441;BME280;29616;51.950;8.572;2023-03-09T08:20:31;98002.75;;;4.14;100.00
7441;BME280;29616;51.950;8.572;2023-03-09T08:22:59;98010.31;;;4.11;100.00
7441;BME280;29616;51.950;8.572;2023-03-09T08:25:30;97998.16;;;4.07;100.00
7441;BME280;29616;51.950;8.572;2023-03-09T08:27:59;98021.00;;;4.12;100.00
7441;BME280;29616;51.950;8.572;2023-03-09T08:30:29;98027.78;;;4.24;100.00
7441;BME280;29616;51.950;8.572;2023-03-09T08:32:58;98054.44;;;4.11;100.00
7441;BME280;29616;51.950;8.572;2023-03-09T08:35:29;98061.28;;;3.98;100.00
7441;BME280;29616;51.950;8.572;2023-03-09T08:38:01;98055.53;;;3.93;100.00
7441;BME280;29616;51.950;8.572;2023-03-09T08:40:33;98060.69;;;3.86;100.00
7441;BME280;29616;51.950;8.572;2023-03-09T08:43:01;98065.78;;;3.89;100.00
7441;BME280;29616;51.950;8.572;2023-03-09T08:45:30;98051.06;;;3.84;100.00
7441;BME280;29616;51.950;8.572;2023-03-09T08:48:00;98068.97;;;3.85;100.00
7441;BME280;29616;51.950;8.572;2023-03-09T08:50:30;98070.50;;;3.87;100.00
7441;BME280;29616;51.950;8.572;2023-03-09T08:53:00;98076.50;;;3.99;100.00
7441;BME280;29616;51.950;8.572;2023-03-09T08:55:30;98067.13;;;3.85;100.00
7441;BME280;29616;51.950;8.572;2023-03-09T08:58:01;98092.41;;;4.02;100.00
7441;BME280;29616;51.950;8.572;2023-03-09T09:00:31;98089.66;;;3.94;100.00
7441;BME280;29616;51.950;8.572;2023-03-09T09:03:01;98085.97;;;4.03;100.00
7441;BME280;29616;51.950;8.572;2023-03-09T09:05:29;98092.78;;;4.07;100.00
7441;BME280;29616;51.950;8.572;2023-03-09T09:07:58;98090.44;;;4.12;100.00
7441;BME280;29616;51.950;8.572;2023-03-09T09:10:28;98086.88;;;4.11;100.00
7441;BME280;29616;51.950;8.572;2023-03-09T09:13:03;98073.19;;;4.13;100.00
7441;BME280;29616;51.950;8.572;2023-03-09T09:15:34;98084.00;;;4.13;100.00
7441;BME280;29616;51.950;8.572;2023-03-09T09:18:05;98092.75;;;4.41;100.00
7441;BME280;29616;51.950;8.572;2023-03-09T09:20:35;98074.31;;;4.36;100.00
7441;BME280;29616;51.950;8.572;2023-03-09T09:23:04;98073.50;;;4.44;100.00
7441;BME280;29616;51.950;8.572;2023-03-09T09:25:34;98091.19;;;4.30;100.00
7441;BME280;29616;51.950;8.572;2023-03-09T09:28:05;98104.47;;;4.49;100.00
7441;BME280;29616;51.950;8.572;2023-03-09T09:30:35;98102.94;;;4.47;100.00
7441;BME280;29616;51.950;8.572;2023-03-09T09:33:05;98110.34;;;4.45;100.00
7441;BME280;29616;51.950;8.572;2023-03-09T09:35:35;98072.38;;;4.54;100.00
7441;BME280;29616;51.950;8.572;2023-03-09T09:38:04;98104.81;;;4.54;100.00
7441;BME280;29616;51.950;8.572;2023-03-09T09:40:33;98101.19;;;4.87;100.00
7441;BME280;29616;51.950;8.572;2023-03-09T09:43:07;98126.91;;;4.83;100.00
7441;BME280;29616;51.950;8.572;2023-03-09T09:45:39;98122.38;;;4.92;100.00
7441;BME280;29616;51.950;8.572;2023-03-09T09:48:12;98137.81;;;5.08;100.00
7441;BME280;29616;51.950;8.572;2023-03-09T09:50:52;98138.19;;;5.29;100.00
7441;BME280;29616;51.950;8.572;2023-03-09T09:53:31;98139.03;;;5.29;100.00
7441;BME280;29616;51.950;8.572;2023-03-09T09:56:05;98144.66;;;5.68;100.00
7441;BME280;29616;51.950;8.572;2023-03-09T09:58:40;98144.97;;;5.65;100.00
7441;BME280;29616;51.950;8.572;2023-03-09T10:01:25;98106.53;;;5.62;100.00
7441;BME280;29616;51.950;8.572;2023-03-09T10:04:01;98095.88;;;5.68;100.00
7441;BME280;29616;51.950;8.572;2023-03-09T10:06:31;98134.50;;;5.94;100.00
7441;BME280;29616;51.950;8.572;2023-03-09T10:09:02;98149.88;;;5.70;100.00
7441;BME280;29616;51.950;8.572;2023-03-09T10:11:35;98118.56;;;5.51;100.00
7441;BME280;29616;51.950;8.572;2023-03-09T10:14:11;98124.75;;;5.11;100.00
7441;BME280;29616;51.950;8.572;2023-03-09T10:16:45;98119.72;;;5.24;100.00
7441;BME280;29616;51.950;8.572;2023-03-09T10:19:19;98123.97;;;5.59;100.00
7441;BME280;29616;51.950;8.572;2023-03-09T10:21:52;98136.34;;;5.70;100.00
7441;BME280;29616;51.950;8.572;2023-03-09T10:24:25;98145.50;;;5.69;100.00
7441;BME280;29616;51.950;8.572;2023-03-09T10:26:59;98157.34;;;5.60;100.00
7441;BME280;29616;51.950;8.572;2023-03-09T10:29:42;98159.56;;;5.48;100.00
7441;BME280;29616;51.950;8.572;2023-03-09T10:32:15;98160.22;;;5.50;100.00
7441;BME280;29616;51.950;8.572;2023-03-09T10:34:54;98167.63;;;5.24;100.00
7441;BME280;29616;51.950;8.572;2023-03-09T10:37:24;98184.75;;;5.40;100.00
7441;BME280;29616;51.950;8.572;2023-03-09T10:39:54;98180.84;;;5.35;100.00
7441;BME280;29616;51.950;8.572;2023-03-09T10:42:24;98155.09;;;5.23;100.00
7441;BME280;29616;51.950;8.572;2023-03-09T10:45:05;98184.59;;;5.42;100.00
7441;BME280;29616;51.950;8.572;2023-03-09T10:47:54;98164.75;;;5.25;100.00
7441;BME280;29616;51.950;8.572;2023-03-09T10:50:26;98186.13;;;5.44;100.00
7441;BME280;29616;51.950;8.572;2023-03-09T10:52:55;98136.22;;;4.81;100.00
7441;BME280;29616;51.950;8.572;2023-03-09T10:55:38;98197.09;;;5.27;100.00
7441;BME280;29616;51.950;8.572;2023-03-09T10:58:14;98186.28;;;5.43;100.00
7441;BME280;29616;51.950;8.572;2023-03-09T11:00:54;98153.41;;;5.38;100.00
7441;BME280;29616;51.950;8.572;2023-03-09T11:03:23;98192.75;;;5.66;100.00
7441;BME280;29616;51.950;8.572;2023-03-09T11:05:54;98200.25;;;5.88;100.00
7441;BME280;29616;51.950;8.572;2023-03-09T11:08:37;98204.47;;;6.07;100.00
7441;BME280;29616;51.950;8.572;2023-03-09T11:11:26;98161.94;;;5.91;100.00
7441;BME280;29616;51.950;8.572;2023-03-09T11:13:56;98208.03;;;5.91;100.00
7441;BME280;29616;51.950;8.572;2023-03-09T11:16:28;98202.09;;;5.80;100.00
7441;BME280;29616;51.950;8.572;2023-03-09T11:19:19;98200.72;;;5.76;100.00
7441;BME280;29616;51.950;8.572;2023-03-09T11:21:51;98197.03;;;6.09;100.00
7441;BME280;29616;51.950;8.572;2023-03-09T11:24:22;98218.56;;;5.94;100.00
7441;BME280;29616;51.950;8.572;2023-03-09T11:26:55;98199.56;;;5.94;100.00
7441;BME280;29616;51.950;8.572;2023-03-09T11:29:30;98219.56;;;6.26;100.00
7441;BME280;29616;51.950;8.572;2023-03-09T11:32:06;98216.16;;;6.24;100.00
7441;BME280;29616;51.950;8.572;2023-03-09T11:34:36;98200.44;;;5.95;100.00
7441;BME280;29616;51.950;8.572;2023-03-09T11:37:13;98216.50;;;5.88;100.00
7441;BME280;29616;51.950;8.572;2023-03-09T11:39:47;98175.16;;;5.86;100.00
7441;BME280;29616;51.950;8.572;2023-03-09T11:42:21;98221.91;;;6.37;100.00
7441;BME280;29616;51.950;8.572;2023-03-09T11:44:51;98237.31;;;6.52;100.00
7441;BME280;29616;51.950;8.572;2023-03-09T11:47:25;98247.31;;;6.68;100.00
7441;BME280;29616;51.950;8.572;2023-03-09T11:49:57;98249.38;;;6.58;100.00
7441;BME280;29616;51.950;8.572;2023-03-09T11:52:30;98256.44;;;6.83;100.00
7441;BME280;29616;51.950;8.572;2023-03-09T11:55:05;98245.94;;;6.72;100.00
7441;BME280;29616;51.950;8.572;2023-03-09T11:57:37;98251.91;;;6.67;100.00
7441;BME280;29616;51.950;8.572;2023-03-09T12:00:10;98263.25;;;6.71;100.00
7441;BME280;29616;51.950;8.572;2023-03-09T12:02:48;98232.50;;;6.79;100.00
7441;BME280;29616;51.950;8.572;2023-03-09T12:05:24;98251.25;;;7.12;100.00
7441;BME280;29616;51.950;8.572;2023-03-09T12:07:57;98227.59;;;6.82;100.00
7441;BME280;29616;51.950;8.572;2023-03-09T12:10:31;98245.00;;;6.49;100.00
7441;BME280;29616;51.950;8.572;2023-03-09T12:13:02;98259.75;;;6.30;100.00
7441;BME280;29616;51.950;8.572;2023-03-09T12:15:34;98253.47;;;6.14;100.00
7441;BME280;29616;51.950;8.572;2023-03-09T12:18:14;98247.88;;;6.39;100.00
7441;BME280;29616;51.950;8.572;2023-03-09T12:20:49;98258.16;;;6.68;100.00
7441;BME280;29616;51.950;8.572;2023-03-09T12:23:46;98255.09;;;6.79;100.00
7441;BME280;29616;51.950;8.572;2023-03-09T12:26:26;98243.63;;;6.21;100.00
7441;BME280;29616;51.950;8.572;2023-03-09T12:29:00;98264.25;;;5.81;100.00
7441;BME280;29616;51.950;8.572;2023-03-09T12:31:33;98258.47;;;5.68;100.00
7441;BME280;29616;51.950;8.572;2023-03-09T12:34:23;98230.50;;;5.60;100.00
7441;BME280;29616;51.950;8.572;2023-03-09T12:36:53;98270.25;;;5.93;100.00
7441;BME280;29616;51.950;8.572;2023-03-09T12:39:43;98249.06;;;6.37;100.00
7441;BME280;29616;51.950;8.572;2023-03-09T12:42:27;98253.81;;;6.35;100.00
7441;BME280;29616;51.950;8.572;2023-03-09T12:44:58;98251.41;;;6.48;100.00
7441;BME280;29616;51.950;8.572;2023-03-09T12:47:35;98250.09;;;6.44;100.00
7441;BME280;29616;51.950;8.572;2023-03-09T12:50:21;98215.00;;;6.18;100.00
7441;BME280;29616;51.950;8.572;2023-03-09T12:52:55;98217.22;;;6.23;100.00
7441;BME280;29616;51.950;8.572;2023-03-09T12:55:40;98249.91;;;6.37;100.00
7441;BME280;29616;51.950;8.572;2023-03-09T12:58:37;98233.31;;;6.24;100.00
7441;BME280;29616;51.950;8.572;2023-03-09T13:01:08;98240.44;;;6.33;100.00
7441;BME280;29616;51.950;8.572;2023-03-09T13:03:42;98250.56;;;6.47;100.00
7441;BME280;29616;51.950;8.572;2023-03-09T13:06:22;98252.59;;;6.45;100.00
7441;BME280;29616;51.950;8.572;2023-03-09T13:08:53;98256.53;;;6.27;100.00
7441;BME280;29616;51.950;8.572;2023-03-09T13:11:32;98262.13;;;6.41;100.00
7441;BME280;29616;51.950;8.572;2023-03-09T13:14:02;98242.28;;;6.33;100.00
7441;BME280;29616;51.950;8.572;2023-03-09T13:16:48;98244.34;;;6.23;100.00
7441;BME280;29616;51.950;8.572;2023-03-09T13:19:51;98247.00;;;6.47;100.00
7441;BME280;29616;51.950;8.572;2023-03-09T13:22:39;98252.44;;;6.31;100.00
7441;BME280;29616;51.950;8.572;2023-03-09T13:28:20;98242.63;;;6.14;100.00
7441;BME280;29616;51.950;8.572;2023-03-09T13:30:52;98203.63;;;5.82;100.00
7441;BME280;29616;51.950;8.572;2023-03-09T13:33:24;98219.91;;;6.23;100.00
7441;BME280;29616;51.950;8.572;2023-03-09T13:35:55;98241.56;;;6.47;100.00
7441;BME280;29616;51.950;8.572;2023-03-09T13:38:28;98256.69;;;6.41;100.00
7441;BME280;29616;51.950;8.572;2023-03-09T13:41:02;98259.41;;;6.33;100.00